createdAt,value
2022-11-28T00:00:57.395Z,10.27
2022-11-28T00:03:24.983Z,8.23
2022-11-28T00:05:51.884Z,8.13
2022-11-28T00:08:18.321Z,9.90
2022-11-28T00:10:45.084Z,9.15
2022-11-28T00:13:11.554Z,8.10
2022-11-28T00:15:40.553Z,14.35
2022-11-28T00:18:06.915Z,10.43
2022-11-28T00:20:33.294Z,12.40
2022-11-28T00:23:02.464Z,10.35
2022-11-28T00:25:28.882Z,8.55
2022-11-28T00:27:55.222Z,11.27
2022-11-28T00:30:21.587Z,10.13
2022-11-28T00:32:47.902Z,10.38
2022-11-28T00:35:14.276Z,11.10
2022-11-28T00:37:40.823Z,10.10
2022-11-28T00:40:07.552Z,10.93
2022-11-28T00:42:33.864Z,12.07
2022-11-28T00:45:00.245Z,10.70
2022-11-28T00:47:26.575Z,8.27
2022-11-28T00:49:52.954Z,13.38
2022-11-28T00:52:19.343Z,7.45
2022-11-28T00:54:45.760Z,9.73
2022-11-28T00:57:12.135Z,12.85
2022-11-28T00:59:38.543Z,8.98
2022-11-28T01:02:05.029Z,8.18
2022-11-28T01:04:31.476Z,10.13
2022-11-28T01:06:58.114Z,11.30
2022-11-28T01:09:24.671Z,7.50
2022-11-28T01:11:51.898Z,10.98
2022-11-28T01:14:19.617Z,10.77
2022-11-28T01:16:46.134Z,8.50
2022-11-28T01:19:13.816Z,9.48
2022-11-28T01:21:40.306Z,11.23
2022-11-28T01:24:06.858Z,8.55
2022-11-28T01:26:33.207Z,9.32
2022-11-28T01:29:00.511Z,8.18
2022-11-28T01:31:27.973Z,12.25
2022-11-28T01:33:54.920Z,6.07
2022-11-28T01:36:21.566Z,9.35
2022-11-28T01:38:48.714Z,8.75
2022-11-28T01:41:15.692Z,9.43
2022-11-28T01:43:57.066Z,9.85
2022-11-28T01:46:23.535Z,6.03
2022-11-28T01:48:50.634Z,5.10
2022-11-28T01:51:17.129Z,7.88
2022-11-28T01:53:45.966Z,8.27
2022-11-28T01:56:23.215Z,9.68
2022-11-28T01:58:52.162Z,8.15
2022-11-28T02:01:19.194Z,6.75
2022-11-28T02:03:46.971Z,9.30
2022-11-28T02:06:14.236Z,7.70
2022-11-28T02:08:40.837Z,7.45
2022-11-28T02:11:23.646Z,7.43
2022-11-28T02:13:59.401Z,7.50
2022-11-28T02:16:31.980Z,8.02
2022-11-28T02:19:16.887Z,6.22
2022-11-28T02:21:52.332Z,6.95
2022-11-28T02:26:54.321Z,5.82
2022-11-28T02:29:40.088Z,6.50
2022-11-28T02:32:12.583Z,7.82
2022-11-28T02:34:47.087Z,6.65
2022-11-28T02:37:16.715Z,7.90
2022-11-28T02:39:43.026Z,7.15
2022-11-28T02:42:16.560Z,9.43
2022-11-28T02:44:52.747Z,6.68
2022-11-28T02:47:24.222Z,5.88
2022-11-28T02:49:53.704Z,9.77
2022-11-28T02:52:26.331Z,6.15
2022-11-28T02:54:53.875Z,6.72
2022-11-28T02:57:20.282Z,10.73
2022-11-28T02:59:48.331Z,6.13
2022-11-28T03:02:29.041Z,6.72
2022-11-28T03:04:55.655Z,8.07
2022-11-28T03:07:33.978Z,8.38
2022-11-28T03:10:18.957Z,8.93
2022-11-28T03:12:45.291Z,7.70
2022-11-28T03:15:12.266Z,5.32
2022-11-28T03:17:51.825Z,7.97
2022-11-28T03:20:23.846Z,7.55
2022-11-28T03:22:56.655Z,10.93
2022-11-28T03:25:49.370Z,8.98
2022-11-28T03:28:28.021Z,6.07
2022-11-28T03:31:00.589Z,6.85
2022-11-28T03:33:29.598Z,8.07
2022-11-28T03:36:02.793Z,5.63
2022-11-28T03:38:33.443Z,7.60
2022-11-28T03:41:01.746Z,11.13
2022-11-28T03:43:32.292Z,7.07
2022-11-28T03:46:03.432Z,7.47
2022-11-28T03:48:31.816Z,5.57
2022-11-28T03:51:01.329Z,7.57
2022-11-28T03:53:30.758Z,9.95
2022-11-28T03:56:02.160Z,8.38
2022-11-28T03:58:47.621Z,9.13
2022-11-28T04:01:32.611Z,7.07
2022-11-28T04:04:05.268Z,5.97
2022-11-28T04:06:39.071Z,9.15
2022-11-28T04:09:14.531Z,10.10
2022-11-28T04:12:00.281Z,10.45
2022-11-28T04:14:31.655Z,8.95
2022-11-28T04:17:04.662Z,7.55
2022-11-28T04:19:36.984Z,7.57
2022-11-28T04:22:07.257Z,7.05
2022-11-28T04:24:37.394Z,11.32
2022-11-28T04:27:11.595Z,11.82
2022-11-28T04:29:49.633Z,5.65
2022-11-28T04:32:19.376Z,9.13
2022-11-28T04:34:46.924Z,9.00
2022-11-28T04:37:17.726Z,8.60
2022-11-28T04:39:45.996Z,9.25
2022-11-28T04:42:17.674Z,8.88
2022-11-28T04:44:53.327Z,7.32
2022-11-28T04:47:19.910Z,6.13
2022-11-28T04:49:46.387Z,7.85
2022-11-28T04:52:15.779Z,11.25
2022-11-28T04:54:45.241Z,7.90
2022-11-28T04:57:17.716Z,9.02
2022-11-28T04:59:44.440Z,7.43
2022-11-28T05:02:12.231Z,10.55
2022-11-28T05:04:38.732Z,10.75
2022-11-28T05:07:05.847Z,9.82
2022-11-28T05:09:32.322Z,12.35
2022-11-28T05:11:58.735Z,10.65
2022-11-28T05:14:25.233Z,9.27
2022-11-28T05:16:51.710Z,9.13
2022-11-28T05:19:18.422Z,8.75
2022-11-28T05:21:45.044Z,10.82
2022-11-28T05:24:11.540Z,11.23
2022-11-28T05:26:38.180Z,13.43
2022-11-28T05:29:04.575Z,8.90
2022-11-28T05:31:30.955Z,9.07
2022-11-28T05:33:57.388Z,13.70
2022-11-28T05:36:23.952Z,14.25
2022-11-28T05:38:50.578Z,10.50
2022-11-28T05:41:21.197Z,12.02
2022-11-28T05:43:47.571Z,11.65
2022-11-28T05:46:13.934Z,10.18
2022-11-28T05:48:40.293Z,12.57
2022-11-28T05:51:06.858Z,12.95
2022-11-28T05:53:33.218Z,9.85
2022-11-28T05:56:01.389Z,10.02
2022-11-28T05:58:27.741Z,9.73
2022-11-28T06:00:54.104Z,10.73
2022-11-28T06:03:20.395Z,10.75
2022-11-28T06:05:46.880Z,14.45
2022-11-28T06:08:13.573Z,14.75
2022-11-28T06:10:40.011Z,11.27
2022-11-28T06:13:06.528Z,12.30
2022-11-28T06:15:37.530Z,13.15
2022-11-28T06:18:04.564Z,13.98
2022-11-28T06:20:30.887Z,12.13
2022-11-28T06:22:57.261Z,13.43
2022-11-28T06:25:23.609Z,13.77
2022-11-28T06:27:49.917Z,12.75
2022-11-28T06:30:16.395Z,12.43
2022-11-28T06:32:42.737Z,12.48
2022-11-28T06:35:09.229Z,14.55
2022-11-28T06:37:35.682Z,14.70
2022-11-28T06:40:01.991Z,15.07
2022-11-28T06:42:28.371Z,12.63
2022-11-28T06:44:54.672Z,13.57
2022-11-28T06:47:21.027Z,14.98
2022-11-28T06:49:48.266Z,13.48
2022-11-28T06:52:14.607Z,13.95
2022-11-28T06:54:41.683Z,12.80
2022-11-28T06:57:08.030Z,11.15
2022-11-28T06:59:34.373Z,14.40
2022-11-28T07:02:07.253Z,17.00
2022-11-28T07:04:34.248Z,15.38
2022-11-28T07:07:00.563Z,13.70
2022-11-28T07:09:26.979Z,13.07
2022-11-28T07:11:53.301Z,13.60
2022-11-28T07:14:19.687Z,17.33
2022-11-28T07:16:47.286Z,18.95
2022-11-28T07:19:13.748Z,14.32
2022-11-28T07:21:40.910Z,15.10
2022-11-28T07:24:08.513Z,15.57
2022-11-28T07:26:38.178Z,16.98
2022-11-28T07:29:06.910Z,15.73
2022-11-28T07:31:33.830Z,12.75
2022-11-28T07:34:01.904Z,14.70
2022-11-28T07:36:28.769Z,16.80
2022-11-28T07:38:56.343Z,14.38
2022-11-28T07:41:26.551Z,16.88
2022-11-28T07:43:54.852Z,15.00
2022-11-28T07:46:21.318Z,20.05
2022-11-28T07:48:48.968Z,18.15
2022-11-28T07:51:19.258Z,16.38
2022-11-28T07:53:46.181Z,18.23
2022-11-28T07:56:15.124Z,26.17
2022-11-28T07:58:42.312Z,19.33
2022-11-28T08:01:12.793Z,19.73
2022-11-28T08:03:39.352Z,22.20
2022-11-28T08:06:05.890Z,23.25
2022-11-28T08:08:32.476Z,17.92
2022-11-28T08:10:59.724Z,16.25
2022-11-28T08:13:26.197Z,14.25
2022-11-28T08:15:52.942Z,19.17
2022-11-28T08:18:19.264Z,13.98
2022-11-28T08:20:45.630Z,17.83
2022-11-28T08:23:12.350Z,18.92
2022-11-28T08:25:38.797Z,15.10
2022-11-28T08:28:05.141Z,21.00
2022-11-28T08:30:31.595Z,19.30
2022-11-28T08:32:58.011Z,17.40
2022-11-28T08:35:24.371Z,15.35
2022-11-28T08:37:50.731Z,17.83
2022-11-28T08:40:17.062Z,15.95
2022-11-28T08:42:43.540Z,19.45
2022-11-28T08:45:10.679Z,16.50
2022-11-28T08:47:37.221Z,21.65
2022-11-28T08:50:03.781Z,23.77
2022-11-28T08:52:30.156Z,16.88
2022-11-28T08:54:56.589Z,19.02
2022-11-28T08:57:22.965Z,18.05
2022-11-28T08:59:49.337Z,15.43
2022-11-28T09:02:15.652Z,15.70
2022-11-28T09:04:42.156Z,15.80
2022-11-28T09:07:08.517Z,19.10
2022-11-28T09:09:34.863Z,16.38
2022-11-28T09:12:01.275Z,21.15
2022-11-28T09:14:27.651Z,16.88
2022-11-28T09:16:56.378Z,17.20
2022-11-28T09:19:23.817Z,14.77
2022-11-28T09:21:56.178Z,14.52
2022-11-28T09:24:23.973Z,12.23
2022-11-28T09:26:50.415Z,15.50
2022-11-28T09:29:16.787Z,13.57
2022-11-28T09:31:47.187Z,13.70
2022-11-28T09:34:13.936Z,15.82
2022-11-28T09:36:40.280Z,14.63
2022-11-28T09:39:06.716Z,13.95
2022-11-28T09:41:33.051Z,13.50
2022-11-28T09:44:06.910Z,13.73
2022-11-28T09:46:34.389Z,15.02
2022-11-28T09:49:02.595Z,16.40
2022-11-28T09:51:37.292Z,15.38
2022-11-28T09:54:18.705Z,16.63
2022-11-28T09:56:47.641Z,15.10
2022-11-28T09:59:22.854Z,16.85
2022-11-28T10:02:07.913Z,14.05
2022-11-28T10:04:41.475Z,13.43
2022-11-28T10:07:23.048Z,15.25
2022-11-28T10:10:07.997Z,14.35
2022-11-28T10:12:40.406Z,14.85
2022-11-28T10:15:09.817Z,13.05
2022-11-28T10:17:42.393Z,16.00
2022-11-28T10:20:23.402Z,11.38
2022-11-28T10:23:16.129Z,12.48
2022-11-28T10:25:48.424Z,11.15
2022-11-28T10:28:16.667Z,12.18
2022-11-28T10:30:46.496Z,10.50
2022-11-28T10:33:19.190Z,14.20
2022-11-28T10:35:54.797Z,14.25
2022-11-28T10:40:52.131Z,11.20
2022-11-28T10:43:40.760Z,12.68
2022-11-28T10:46:16.032Z,13.10
2022-11-28T10:48:49.225Z,11.23
2022-11-28T10:51:21.848Z,13.55
2022-11-28T10:54:00.487Z,10.52
2022-11-28T10:56:47.142Z,11.50
2022-11-28T10:59:19.034Z,13.88
2022-11-28T11:01:50.015Z,9.40
2022-11-28T11:04:21.337Z,11.32
2022-11-28T11:07:10.582Z,13.52
2022-11-28T11:09:40.317Z,11.20
2022-11-28T11:12:12.281Z,10.52
2022-11-28T11:14:43.042Z,11.23
2022-11-28T11:17:24.096Z,10.30
2022-11-28T11:19:50.385Z,10.98
2022-11-28T11:22:29.084Z,15.05
2022-11-28T11:25:07.355Z,12.73
2022-11-28T11:27:35.079Z,13.35
2022-11-28T11:30:15.425Z,11.27
2022-11-28T11:32:41.818Z,14.27
2022-11-28T11:35:16.318Z,12.85
2022-11-28T11:37:43.635Z,12.63
2022-11-28T11:40:30.385Z,10.73
2022-11-28T11:42:58.237Z,12.73
2022-11-28T11:45:24.712Z,12.82
2022-11-28T11:47:51.120Z,13.32
2022-11-28T11:50:18.912Z,11.27
2022-11-28T11:53:09.134Z,16.23
2022-11-28T11:55:48.020Z,12.60
2022-11-28T11:58:16.277Z,12.45
2022-11-28T12:00:43.105Z,10.90
2022-11-28T12:03:33.116Z,10.48
2022-11-28T12:06:14.065Z,12.23
2022-11-28T12:09:16.629Z,12.73
2022-11-28T12:11:52.021Z,11.45
2022-11-28T12:14:27.057Z,10.70
2022-11-28T12:16:53.381Z,9.43
2022-11-28T12:19:38.147Z,14.50
2022-11-28T12:22:04.424Z,9.02
2022-11-28T12:24:49.923Z,12.32
2022-11-28T12:27:34.849Z,12.70
2022-11-28T12:30:19.824Z,11.88
2022-11-28T12:33:05.045Z,10.75
2022-11-28T12:35:53.986Z,9.90
2022-11-28T12:38:36.253Z,9.00
2022-11-28T12:41:08.624Z,9.90
2022-11-28T12:43:42.617Z,10.18
2022-11-28T12:46:18.450Z,11.60
2022-11-28T12:49:01.916Z,9.50
2022-11-28T12:51:34.430Z,10.52
2022-11-28T12:54:16.094Z,11.88
2022-11-28T12:56:58.261Z,14.57
2022-11-28T12:59:40.266Z,12.23
2022-11-28T13:02:19.239Z,14.15
2022-11-28T13:05:03.479Z,12.88
2022-11-28T13:07:35.680Z,12.55
2022-11-28T13:10:28.677Z,12.60
2022-11-28T13:12:54.980Z,14.38
2022-11-28T13:15:28.231Z,14.20
2022-11-28T13:18:02.595Z,16.27
2022-11-28T13:21:01.317Z,18.33
2022-11-28T13:23:41.496Z,14.35
2022-11-28T13:26:26.693Z,19.45
2022-11-28T13:29:01.875Z,16.30
2022-11-28T13:31:28.340Z,16.30
2022-11-28T13:33:55.653Z,15.63
2022-11-28T13:39:12.903Z,14.63
2022-11-28T13:42:14.388Z,19.63
2022-11-28T13:44:33.052Z,17.15
2022-11-28T13:47:24.572Z,17.00
2022-11-28T13:49:50.883Z,19.33
2022-11-28T13:52:17.233Z,15.35
2022-11-28T13:54:44.798Z,15.90
2022-11-28T13:57:19.074Z,15.68
2022-11-28T13:59:50.728Z,17.63
2022-11-28T14:02:30.158Z,18.30
2022-11-28T14:04:56.552Z,15.65
2022-11-28T14:07:33.068Z,17.17
2022-11-28T14:10:18.027Z,18.75
2022-11-28T14:12:50.838Z,16.60
2022-11-28T14:15:20.436Z,16.98
2022-11-28T14:17:46.800Z,19.85
2022-11-28T14:20:32.043Z,20.55
2022-11-28T14:23:04.545Z,18.63
2022-11-28T14:25:39.492Z,18.15
2022-11-28T14:28:09.765Z,15.20
2022-11-28T14:30:40.191Z,24.00
2022-11-28T14:33:15.104Z,15.55
2022-11-28T14:36:04.943Z,17.92
2022-11-28T14:38:31.327Z,19.52
2022-11-28T14:41:14.924Z,22.20
2022-11-28T14:43:46.180Z,22.70
2022-11-28T14:46:15.649Z,20.17
2022-11-28T14:49:02.554Z,19.95
2022-11-28T14:51:44.136Z,22.85
2022-11-28T14:54:22.805Z,20.23
2022-11-28T14:56:56.748Z,22.30
2022-11-28T14:59:28.450Z,15.95
2022-11-28T15:02:13.299Z,17.60
2022-11-28T15:04:46.031Z,17.75
2022-11-28T15:07:33.112Z,18.33
2022-11-28T15:10:18.293Z,19.23
2022-11-28T15:13:03.525Z,16.43
2022-11-28T15:15:31.405Z,19.35
2022-11-28T15:17:59.649Z,22.00
2022-11-28T15:20:28.694Z,20.35
2022-11-28T15:22:55.167Z,20.40
2022-11-28T15:25:29.523Z,17.50
2022-11-28T15:27:56.782Z,21.23
2022-11-28T15:30:26.693Z,19.98
2022-11-28T15:32:58.264Z,17.67
2022-11-28T15:35:24.834Z,17.58
2022-11-28T15:37:53.769Z,19.52
2022-11-28T15:40:21.809Z,20.05
2022-11-28T15:42:49.094Z,17.90
2022-11-28T15:45:26.623Z,19.48
2022-11-28T15:47:53.586Z,18.58
2022-11-28T15:50:21.010Z,17.90
2022-11-28T15:52:54.129Z,16.25
2022-11-28T15:55:20.594Z,22.33
2022-11-28T15:57:46.964Z,20.38
2022-11-28T16:00:14.026Z,18.00
2022-11-28T16:02:40.903Z,19.85
2022-11-28T16:05:21.767Z,22.38
2022-11-28T16:07:51.528Z,18.92
2022-11-28T16:10:25.999Z,25.58
2022-11-28T16:12:54.956Z,22.33
2022-11-28T16:15:22.855Z,23.15
2022-11-28T16:17:49.447Z,21.20
2022-11-28T16:20:36.148Z,21.05
2022-11-28T16:23:18.047Z,22.83
2022-11-28T16:25:44.765Z,25.83
2022-11-28T16:28:31.523Z,26.45
2022-11-28T16:30:57.914Z,23.45
2022-11-28T16:33:45.312Z,20.90
2022-11-28T16:36:24.252Z,21.35
2022-11-28T16:38:52.075Z,23.13
2022-11-28T16:41:21.483Z,46.22
2022-11-28T16:43:49.991Z,67.78
2022-11-28T16:46:20.623Z,34.22
2022-11-28T16:48:48.443Z,25.85
2022-11-28T16:51:15.234Z,25.42
2022-11-28T16:53:41.615Z,22.27
2022-11-28T16:56:25.735Z,21.88
2022-11-28T16:59:00.812Z,22.33
2022-11-28T17:01:28.298Z,27.05
2022-11-28T17:03:57.178Z,24.42
2022-11-28T17:06:25.255Z,22.55
2022-11-28T17:08:51.744Z,21.58
2022-11-28T17:11:20.079Z,22.17
2022-11-28T17:13:46.448Z,21.45
2022-11-28T17:16:17.450Z,21.38
2022-11-28T17:18:44.437Z,19.98
2022-11-28T17:21:11.956Z,19.50
2022-11-28T17:23:38.664Z,19.48
2022-11-28T17:26:05.154Z,19.50
2022-11-28T17:28:31.512Z,19.77
2022-11-28T17:30:58.588Z,19.30
2022-11-28T17:33:24.963Z,21.23
2022-11-28T17:35:52.450Z,20.50
2022-11-28T17:38:20.131Z,20.30
2022-11-28T17:40:46.786Z,19.52
2022-11-28T17:43:20.298Z,20.55
2022-11-28T17:45:47.369Z,20.50
2022-11-28T17:48:16.014Z,24.88
2022-11-28T17:50:43.232Z,21.90
2022-11-28T17:53:10.631Z,24.33
2022-11-28T17:55:38.685Z,19.92
2022-11-28T17:58:04.991Z,22.83
2022-11-28T18:00:32.824Z,21.77
2022-11-28T18:02:59.215Z,22.88
2022-11-28T18:05:25.614Z,22.20
2022-11-28T18:07:52.621Z,20.45
2022-11-28T18:10:19.022Z,25.45
2022-11-28T18:12:45.397Z,21.40
2022-11-28T18:15:11.806Z,21.17
2022-11-28T18:17:38.378Z,25.00
2022-11-28T18:20:05.095Z,23.15
2022-11-28T18:22:31.477Z,25.23
2022-11-28T18:24:57.882Z,22.55
2022-11-28T18:27:24.265Z,23.95
2022-11-28T18:29:51.291Z,21.90
2022-11-28T18:32:17.613Z,21.05
2022-11-28T18:34:43.927Z,22.48
2022-11-28T18:37:11.201Z,24.38
2022-11-28T18:39:37.516Z,22.92
2022-11-28T18:42:04.851Z,25.20
2022-11-28T18:44:31.248Z,26.35
2022-11-28T18:46:57.583Z,24.95
2022-11-28T18:49:23.971Z,25.00
2022-11-28T18:51:50.537Z,23.75
2022-11-28T18:54:21.149Z,24.63
2022-11-28T18:56:49.643Z,25.17
2022-11-28T18:59:16.226Z,23.70
2022-11-28T19:01:42.624Z,23.17
2022-11-28T19:04:11.034Z,26.15
2022-11-28T19:06:38.719Z,22.38
2022-11-28T19:09:06.276Z,25.15
2022-11-28T19:11:33.203Z,24.23
2022-11-28T19:13:59.728Z,23.35
2022-11-28T19:16:27.955Z,22.58
2022-11-28T19:18:54.419Z,24.23
2022-11-28T19:21:22.282Z,22.38
2022-11-28T19:23:48.972Z,21.40
2022-11-28T19:26:16.665Z,23.48
2022-11-28T19:28:43.093Z,22.35
2022-11-28T19:31:12.324Z,22.85
2022-11-28T19:33:38.931Z,23.17
2022-11-28T19:36:07.392Z,21.35
2022-11-28T19:38:34.407Z,20.27
2022-11-28T19:41:06.828Z,22.20
2022-11-28T19:43:35.960Z,20.67
2022-11-28T19:46:02.968Z,20.95
2022-11-28T19:48:30.422Z,19.75
2022-11-28T19:50:57.274Z,18.83
2022-11-28T19:53:23.672Z,20.00
2022-11-28T19:55:50.224Z,20.85
2022-11-28T19:58:17.160Z,18.33
2022-11-28T20:00:44.039Z,20.88
2022-11-28T20:03:10.401Z,22.95
2022-11-28T20:05:37.916Z,17.63
2022-11-28T20:08:04.461Z,20.92
2022-11-28T20:10:30.834Z,20.50
2022-11-28T20:12:57.226Z,20.48
2022-11-28T20:15:23.605Z,22.17
2022-11-28T20:17:49.975Z,19.35
2022-11-28T20:20:16.341Z,20.58
2022-11-28T20:22:42.657Z,17.70
2022-11-28T20:25:09.031Z,19.25
2022-11-28T20:27:35.333Z,21.55
2022-11-28T20:30:02.059Z,22.20
2022-11-28T20:32:28.756Z,18.83
2022-11-28T20:34:55.059Z,22.33
2022-11-28T20:37:21.360Z,24.75
2022-11-28T20:39:47.740Z,19.13
2022-11-28T20:42:14.430Z,20.20
2022-11-28T20:44:43.842Z,22.08
2022-11-28T20:47:11.649Z,19.88
2022-11-28T20:49:38.467Z,21.48
2022-11-28T20:52:05.019Z,19.27
2022-11-28T20:54:31.412Z,21.02
2022-11-28T20:57:20.159Z,20.63
2022-11-28T20:59:58.103Z,20.67
2022-11-28T21:02:24.496Z,19.15
2022-11-28T21:04:50.884Z,19.70
2022-11-28T21:07:18.432Z,17.95
2022-11-28T21:09:45.052Z,19.35
2022-11-28T21:12:13.542Z,18.17
2022-11-28T21:14:44.386Z,16.92
2022-11-28T21:17:10.906Z,18.65
2022-11-28T21:19:37.229Z,16.60
2022-11-28T21:22:03.671Z,17.50
2022-11-28T21:24:30.377Z,20.55
2022-11-28T21:26:56.796Z,19.48
2022-11-28T21:29:24.476Z,22.38
2022-11-28T21:31:51.090Z,20.98
2022-11-28T21:34:19.257Z,21.40
2022-11-28T21:36:45.986Z,22.33
2022-11-28T21:39:16.887Z,21.83
2022-11-28T21:41:43.247Z,23.02
2022-11-28T21:44:09.590Z,22.92
2022-11-28T21:46:35.916Z,20.52
2022-11-28T21:49:02.329Z,22.45
2022-11-28T21:51:28.952Z,17.98
2022-11-28T21:53:57.287Z,22.02
2022-11-28T21:56:24.030Z,20.33
2022-11-28T21:58:50.457Z,18.88
2022-11-28T22:01:17.030Z,20.60
2022-11-28T22:03:43.855Z,21.67
2022-11-28T22:06:13.016Z,19.52
2022-11-28T22:08:39.451Z,20.75
2022-11-28T22:11:08.481Z,20.17
2022-11-28T22:13:35.360Z,18.13
2022-11-28T22:16:01.826Z,15.85
2022-11-28T22:18:29.085Z,18.73
2022-11-28T22:21:06.604Z,18.80
2022-11-28T22:23:39.789Z,16.98
2022-11-28T22:26:06.806Z,21.67
2022-11-28T22:28:33.951Z,19.52
2022-11-28T22:31:06.132Z,18.13
2022-11-28T22:33:32.475Z,17.92
2022-11-28T22:36:10.823Z,20.35
2022-11-28T22:38:37.591Z,16.83
2022-11-28T22:41:08.286Z,17.00
2022-11-28T22:43:34.873Z,16.35
2022-11-28T22:46:01.265Z,17.08
2022-11-28T22:48:29.076Z,20.23
2022-11-28T22:50:55.411Z,20.67
2022-11-28T22:53:21.838Z,19.35
2022-11-28T22:55:48.219Z,18.98
2022-11-28T22:58:14.545Z,17.88
2022-11-28T23:00:41.039Z,18.70
2022-11-28T23:03:07.536Z,16.50
2022-11-28T23:05:34.169Z,17.08
2022-11-28T23:08:00.545Z,18.40
2022-11-28T23:10:26.937Z,18.40
2022-11-28T23:12:53.332Z,21.65
2022-11-28T23:15:19.702Z,17.85
2022-11-28T23:17:46.072Z,19.65
2022-11-28T23:20:12.700Z,20.75
2022-11-28T23:22:39.083Z,22.05
2022-11-28T23:25:05.643Z,23.20
2022-11-28T23:27:31.995Z,22.05
2022-11-28T23:29:58.357Z,21.48
2022-11-28T23:32:24.770Z,22.80
2022-11-28T23:34:51.272Z,19.48
2022-11-28T23:37:17.656Z,20.88
2022-11-28T23:39:44.047Z,19.52
2022-11-28T23:42:10.379Z,18.95
2022-11-28T23:44:36.719Z,19.50
2022-11-28T23:47:03.168Z,25.08
2022-11-28T23:49:29.476Z,22.30
2022-11-28T23:51:55.829Z,21.35
2022-11-28T23:54:22.241Z,19.42
2022-11-28T23:56:48.561Z,20.13
2022-11-28T23:59:15.109Z,19.38
